createdAt,value
2017-05-24T00:02:26.043Z,12.27
2017-05-24T00:04:54.277Z,10.83
2017-05-24T00:07:22.583Z,18.00
2017-05-24T00:09:50.803Z,11.97
2017-05-24T00:12:19.007Z,12.83
2017-05-24T00:14:47.219Z,12.32
2017-05-24T00:17:15.461Z,12.43
2017-05-24T00:19:43.671Z,16.10
2017-05-24T00:22:11.938Z,14.40
2017-05-24T00:24:40.200Z,11.93
2017-05-24T00:27:08.474Z,14.53
2017-05-24T00:29:36.711Z,16.85
2017-05-24T00:32:04.922Z,14.46
2017-05-24T00:34:33.127Z,16.12
2017-05-24T00:37:01.380Z,15.27
2017-05-24T00:39:29.603Z,12.95
2017-05-24T00:41:57.835Z,10.15
2017-05-24T00:44:26.040Z,18.65
2017-05-24T00:46:54.249Z,13.63
2017-05-24T00:49:22.482Z,13.83
2017-05-24T00:51:50.718Z,12.80
2017-05-24T00:54:19.003Z,11.70
2017-05-24T00:56:47.262Z,13.55
2017-05-24T00:59:15.542Z,15.67
2017-05-24T01:01:43.827Z,15.50
2017-05-24T01:04:12.037Z,10.15
2017-05-24T01:06:40.268Z,18.53
2017-05-24T01:09:08.547Z,10.82
2017-05-24T01:11:36.806Z,19.88
2017-05-24T01:14:05.024Z,12.42
2017-05-24T01:16:33.243Z,12.53
2017-05-24T01:19:01.462Z,13.50
2017-05-24T01:21:29.679Z,13.32
2017-05-24T01:23:57.998Z,16.17
2017-05-24T01:26:26.207Z,14.12
2017-05-24T01:28:54.432Z,16.30
2017-05-24T01:31:22.655Z,14.78
2017-05-24T01:33:50.887Z,15.63
2017-05-24T01:36:19.107Z,14.62
2017-05-24T01:38:47.311Z,16.27
2017-05-24T01:41:15.550Z,16.42
2017-05-24T01:43:43.763Z,13.70
2017-05-24T01:46:12.054Z,13.87
2017-05-24T01:48:40.339Z,14.27
2017-05-24T01:51:08.608Z,15.68
2017-05-24T01:53:36.852Z,17.98
2017-05-24T01:56:05.054Z,13.00
2017-05-24T01:58:33.347Z,13.44
2017-05-24T02:01:01.607Z,13.83
2017-05-24T02:03:29.818Z,18.73
2017-05-24T02:05:58.159Z,16.40
2017-05-24T02:08:26.437Z,15.60
2017-05-24T02:10:54.749Z,19.72
2017-05-24T02:13:22.990Z,14.70
2017-05-24T02:15:51.204Z,16.60
2017-05-24T02:18:19.432Z,15.65
2017-05-24T02:20:47.631Z,16.03
2017-05-24T02:23:15.865Z,13.30
2017-05-24T02:25:44.155Z,16.28
2017-05-24T02:28:12.426Z,10.15
2017-05-24T02:30:40.727Z,13.43
2017-05-24T02:33:08.940Z,17.63
2017-05-24T02:35:37.148Z,16.38
2017-05-24T02:38:05.439Z,15.80
2017-05-24T02:40:33.703Z,12.24
2017-05-24T02:43:01.927Z,14.30
2017-05-24T02:45:30.157Z,16.08
2017-05-24T02:47:58.383Z,14.67
2017-05-24T02:50:26.594Z,17.77
2017-05-24T02:52:54.804Z,17.03
2017-05-24T02:55:23.025Z,13.55
2017-05-24T02:57:51.231Z,14.05
2017-05-24T03:00:19.437Z,12.05
2017-05-24T03:02:47.652Z,18.18
2017-05-24T03:05:15.960Z,14.03
2017-05-24T03:07:44.255Z,13.85
2017-05-24T03:10:12.466Z,16.23
2017-05-24T03:12:40.778Z,16.82
2017-05-24T03:15:08.993Z,20.83
2017-05-24T03:17:37.311Z,19.23
2017-05-24T03:20:05.519Z,14.25
2017-05-24T03:22:33.730Z,13.62
2017-05-24T03:25:01.951Z,13.18
2017-05-24T03:27:30.166Z,13.58
2017-05-24T03:29:58.403Z,11.12
2017-05-24T03:32:26.615Z,14.17
2017-05-24T03:34:54.905Z,15.70
2017-05-24T03:37:23.149Z,14.18
2017-05-24T03:39:51.474Z,14.05
2017-05-24T03:42:19.682Z,13.17
2017-05-24T03:44:47.903Z,13.58
2017-05-24T03:47:16.119Z,12.62
2017-05-24T03:49:44.431Z,12.68
2017-05-24T03:52:12.627Z,13.62
2017-05-24T03:54:40.943Z,13.58
2017-05-24T03:57:09.158Z,15.60
2017-05-24T03:59:37.404Z,14.93
2017-05-24T04:02:05.675Z,11.62
2017-05-24T04:04:33.951Z,12.02
2017-05-24T04:07:02.224Z,15.97
2017-05-24T04:09:30.487Z,15.68
2017-05-24T04:11:58.706Z,14.07
2017-05-24T04:14:26.927Z,14.85
2017-05-24T04:16:55.369Z,13.67
2017-05-24T04:19:23.631Z,13.13
2017-05-24T04:21:51.835Z,13.50
2017-05-24T04:24:20.043Z,13.53
2017-05-24T04:26:48.326Z,12.85
2017-05-24T04:29:16.694Z,13.28
2017-05-24T04:31:44.925Z,15.25
2017-05-24T04:34:13.148Z,12.78
2017-05-24T04:36:41.356Z,15.28
2017-05-24T04:39:09.603Z,14.77
2017-05-24T04:41:37.871Z,15.38
2017-05-24T04:44:06.116Z,15.00
2017-05-24T04:46:34.571Z,12.25
2017-05-24T04:49:02.909Z,14.30
2017-05-24T04:51:31.187Z,9.10
2017-05-24T04:53:59.510Z,12.72
2017-05-24T04:56:27.742Z,10.90
2017-05-24T04:58:56.211Z,11.80
2017-05-24T05:01:24.583Z,12.10
2017-05-24T05:03:53.046Z,11.77
2017-05-24T05:06:21.336Z,11.08
2017-05-24T05:08:49.632Z,13.08
2017-05-24T05:11:17.852Z,9.30
2017-05-24T05:13:46.195Z,11.92
2017-05-24T05:16:14.511Z,11.28
2017-05-24T05:18:42.749Z,10.63
2017-05-24T05:21:11.031Z,8.00
2017-05-24T05:23:39.407Z,7.85
2017-05-24T05:26:07.662Z,7.80
2017-05-24T05:28:35.868Z,9.16
2017-05-24T05:31:04.144Z,7.53
2017-05-24T05:33:32.385Z,7.95
2017-05-24T05:36:00.683Z,10.77
2017-05-24T05:38:28.894Z,9.57
2017-05-24T05:40:57.135Z,7.44
2017-05-24T05:43:25.375Z,6.10
2017-05-24T05:45:53.598Z,7.28
2017-05-24T05:48:21.856Z,9.98
2017-05-24T05:50:50.323Z,12.43
2017-05-24T05:53:18.546Z,9.20
2017-05-24T05:55:46.791Z,11.13
2017-05-24T05:58:15.057Z,8.10
2017-05-24T06:00:43.293Z,9.08
2017-05-24T06:03:11.513Z,4.70
2017-05-24T06:05:39.738Z,5.88
2017-05-24T06:08:07.964Z,9.97
2017-05-24T06:10:36.186Z,7.37
2017-05-24T06:13:04.396Z,7.98
2017-05-24T06:15:32.607Z,7.58
2017-05-24T06:18:00.836Z,8.22
2017-05-24T06:20:29.108Z,7.95
2017-05-24T06:22:57.334Z,6.50
2017-05-24T06:25:25.662Z,7.45
2017-05-24T06:27:53.867Z,10.82
2017-05-24T06:30:22.108Z,8.77
2017-05-24T06:32:50.315Z,7.30
2017-05-24T06:35:18.542Z,6.58
2017-05-24T06:37:46.970Z,10.65
2017-05-24T06:40:15.174Z,7.93
2017-05-24T06:42:43.383Z,7.48
2017-05-24T06:45:11.590Z,6.10
2017-05-24T06:47:39.859Z,8.55
2017-05-24T06:50:08.188Z,7.67
2017-05-24T06:52:36.502Z,6.04
2017-05-24T06:55:04.779Z,7.05
2017-05-24T06:57:32.231Z,6.78
2017-05-24T07:00:00.521Z,6.42
2017-05-24T07:02:28.786Z,6.75
2017-05-24T07:04:57.021Z,6.07
2017-05-24T07:07:25.243Z,4.65
2017-05-24T07:09:52.690Z,5.22
2017-05-24T07:12:20.959Z,8.73
2017-05-24T07:14:49.222Z,6.93
2017-05-24T07:17:17.467Z,8.30
2017-05-24T07:19:45.691Z,8.33
2017-05-24T07:22:14.007Z,6.83
2017-05-24T07:24:42.219Z,5.42
2017-05-24T07:27:10.563Z,5.93
2017-05-24T07:29:39.147Z,6.55
2017-05-24T07:32:07.413Z,6.14
2017-05-24T07:34:35.673Z,3.97
2017-05-24T07:37:03.892Z,5.88
2017-05-24T07:39:32.216Z,6.67
2017-05-24T07:42:00.447Z,6.13
2017-05-24T07:44:28.776Z,8.87
2017-05-24T07:46:56.977Z,7.27
2017-05-24T07:49:25.195Z,6.68
2017-05-24T07:51:53.486Z,6.78
2017-05-24T07:54:21.766Z,4.17
2017-05-24T07:56:49.985Z,8.33
2017-05-24T07:59:18.211Z,10.52
2017-05-24T08:01:46.437Z,4.33
2017-05-24T08:04:14.654Z,7.10
2017-05-24T08:06:42.950Z,6.53
2017-05-24T08:09:11.325Z,7.86
2017-05-24T08:11:39.554Z,6.88
2017-05-24T08:14:07.866Z,8.05
2017-05-24T08:16:36.079Z,7.45
2017-05-24T08:19:04.307Z,9.23
2017-05-24T08:21:32.580Z,9.03
2017-05-24T08:24:00.855Z,5.78
2017-05-24T08:26:29.129Z,8.05
2017-05-24T08:28:57.335Z,6.23
2017-05-24T08:31:25.558Z,5.35
2017-05-24T08:33:53.771Z,4.53
2017-05-24T08:36:22.211Z,3.20
2017-05-24T08:38:50.442Z,6.03
2017-05-24T08:41:18.647Z,6.33
2017-05-24T08:43:47.020Z,5.47
2017-05-24T08:46:15.286Z,4.60
2017-05-24T08:48:43.640Z,5.57
2017-05-24T08:51:11.864Z,8.57
2017-05-24T08:53:40.138Z,5.20
2017-05-24T08:56:08.370Z,7.28
2017-05-24T08:58:36.602Z,4.97
2017-05-24T09:01:04.839Z,5.77
2017-05-24T09:03:33.066Z,8.33
2017-05-24T09:06:01.267Z,5.78
2017-05-24T09:08:29.487Z,4.13
2017-05-24T09:10:57.790Z,8.60
2017-05-24T09:13:26.056Z,5.93
2017-05-24T09:15:54.441Z,7.35
2017-05-24T09:18:22.640Z,6.50
2017-05-24T09:20:50.891Z,4.80
2017-05-24T09:23:19.274Z,6.48
2017-05-24T09:25:47.525Z,3.93
2017-05-24T09:28:15.738Z,6.96
2017-05-24T09:30:43.984Z,7.07
2017-05-24T09:33:12.195Z,6.94
2017-05-24T09:35:40.454Z,9.38
2017-05-24T09:38:08.809Z,6.84
2017-05-24T09:40:37.090Z,6.32
2017-05-24T09:43:05.316Z,7.38
2017-05-24T09:45:33.525Z,5.95
2017-05-24T09:48:01.816Z,8.96
2017-05-24T09:50:30.099Z,7.60
2017-05-24T09:52:59.201Z,5.94
2017-05-24T09:55:27.395Z,7.82
2017-05-24T09:57:55.612Z,6.27
2017-05-24T10:00:23.901Z,5.88
2017-05-24T10:02:52.127Z,6.37
2017-05-24T10:05:20.363Z,5.62
2017-05-24T10:07:48.601Z,4.27
2017-05-24T10:10:16.822Z,3.65
2017-05-24T10:12:45.033Z,5.22
2017-05-24T10:15:13.311Z,4.58
2017-05-24T10:17:41.512Z,5.97
2017-05-24T10:20:09.739Z,5.22
2017-05-24T10:22:38.066Z,5.55
2017-05-24T10:25:06.379Z,5.05
2017-05-24T10:27:34.699Z,6.63
2017-05-24T10:30:02.899Z,5.97
2017-05-24T10:32:31.250Z,5.57
2017-05-24T10:34:59.570Z,4.45
2017-05-24T10:37:27.024Z,7.20
2017-05-24T10:40:11.090Z,5.10
2017-05-24T10:42:39.309Z,5.64
2017-05-24T10:45:07.580Z,5.08
2017-05-24T10:47:35.790Z,5.74
2017-05-24T10:50:04.003Z,4.10
2017-05-24T10:52:32.225Z,2.80
2017-05-24T10:55:00.579Z,3.95
2017-05-24T10:57:28.768Z,3.46
2017-05-24T10:59:57.065Z,5.68
2017-05-24T11:02:25.367Z,3.52
2017-05-24T11:04:53.625Z,5.67
2017-05-24T11:07:21.852Z,4.16
2017-05-24T11:09:50.060Z,5.48
2017-05-24T11:12:18.370Z,6.90
2017-05-24T11:14:46.604Z,4.20
2017-05-24T11:17:14.878Z,3.60
2017-05-24T11:19:43.162Z,2.22
2017-05-24T11:22:11.415Z,4.08
2017-05-24T11:24:39.811Z,4.45
2017-05-24T11:27:08.025Z,3.62
2017-05-24T11:29:36.260Z,4.27
2017-05-24T11:32:04.538Z,4.23
2017-05-24T11:34:32.812Z,3.50
2017-05-24T11:37:01.084Z,4.32
2017-05-24T11:39:29.433Z,4.70
2017-05-24T11:41:57.790Z,3.48
2017-05-24T11:44:26.051Z,4.63
2017-05-24T11:46:54.252Z,5.30
2017-05-24T11:49:22.469Z,3.25
2017-05-24T11:51:50.732Z,4.83
2017-05-24T11:54:18.984Z,3.18
2017-05-24T11:56:47.188Z,5.32
2017-05-24T11:59:15.452Z,4.97
2017-05-24T12:01:43.693Z,5.90
2017-05-24T12:04:11.908Z,3.47
2017-05-24T12:06:40.102Z,3.44
2017-05-24T12:09:08.367Z,5.20
2017-05-24T12:11:36.627Z,5.06
2017-05-24T12:14:04.841Z,5.25
2017-05-24T12:16:33.059Z,3.78
2017-05-24T12:19:01.363Z,2.80
2017-05-24T12:21:29.570Z,3.85
2017-05-24T12:23:57.780Z,5.13
2017-05-24T12:26:26.000Z,4.88
2017-05-24T12:28:54.261Z,3.60
2017-05-24T12:31:22.505Z,5.32
2017-05-24T12:33:50.702Z,5.40
2017-05-24T12:36:18.991Z,2.52
2017-05-24T12:38:47.240Z,3.92
2017-05-24T12:41:15.446Z,2.48
2017-05-24T12:43:43.819Z,4.63
2017-05-24T12:46:12.026Z,6.22
2017-05-24T12:48:40.412Z,3.37
2017-05-24T12:51:08.626Z,4.57
2017-05-24T12:53:36.848Z,3.77
2017-05-24T12:56:05.058Z,4.00
2017-05-24T12:58:33.267Z,5.92
2017-05-24T13:01:01.523Z,4.63
2017-05-24T13:03:29.801Z,6.58
2017-05-24T13:05:58.067Z,4.42
2017-05-24T13:08:26.289Z,5.57
2017-05-24T13:10:54.518Z,3.67
2017-05-24T13:13:22.796Z,5.30
2017-05-24T13:15:51.056Z,4.12
2017-05-24T13:18:19.260Z,3.60
2017-05-24T13:20:47.462Z,4.85
2017-05-24T13:23:15.687Z,4.03
2017-05-24T13:25:43.127Z,4.58
2017-05-24T13:28:11.379Z,6.57
2017-05-24T13:30:39.579Z,4.90
2017-05-24T13:33:07.801Z,3.05
2017-05-24T13:35:36.043Z,4.12
2017-05-24T13:38:04.324Z,4.60
2017-05-24T13:40:32.635Z,3.90
2017-05-24T13:43:00.970Z,4.47
2017-05-24T13:45:29.189Z,4.75
2017-05-24T13:47:57.425Z,6.05
2017-05-24T13:50:25.677Z,3.58
2017-05-24T13:52:53.903Z,7.35
2017-05-24T13:55:22.156Z,4.86
2017-05-24T13:57:50.379Z,4.70
2017-05-24T14:00:18.636Z,4.15
2017-05-24T14:02:46.886Z,4.85
2017-05-24T14:05:15.086Z,4.80
2017-05-24T14:07:43.303Z,4.08
2017-05-24T14:10:11.510Z,3.10
2017-05-24T14:12:39.772Z,7.02
2017-05-24T14:15:08.046Z,5.53
2017-05-24T14:17:36.325Z,6.72
2017-05-24T14:20:04.569Z,5.55
2017-05-24T14:22:32.771Z,3.50
2017-05-24T14:25:01.060Z,5.60
2017-05-24T14:27:29.266Z,4.12
2017-05-24T14:29:57.983Z,3.63
2017-05-24T14:32:26.225Z,4.78
2017-05-24T14:34:54.455Z,3.72
2017-05-24T14:37:22.735Z,3.78
2017-05-24T14:39:51.002Z,4.02
2017-05-24T14:42:19.358Z,6.32
2017-05-24T14:44:47.564Z,5.15
2017-05-24T14:47:15.831Z,6.58
2017-05-24T14:49:44.207Z,5.23
2017-05-24T14:52:12.476Z,6.63
2017-05-24T14:54:40.696Z,4.35
2017-05-24T14:57:08.899Z,3.28
2017-05-24T14:59:37.323Z,3.38
2017-05-24T15:02:05.622Z,3.12
2017-05-24T15:04:33.879Z,4.87
2017-05-24T15:07:02.135Z,4.97
2017-05-24T15:09:30.505Z,4.22
2017-05-24T15:11:58.724Z,3.65
2017-05-24T15:14:26.943Z,4.77
2017-05-24T15:16:55.183Z,4.27
2017-05-24T15:19:23.421Z,6.02
2017-05-24T15:21:50.867Z,4.16
2017-05-24T15:24:19.099Z,5.07
2017-05-24T15:26:47.515Z,4.80
2017-05-24T15:29:16.200Z,4.10
2017-05-24T15:31:44.457Z,3.50
2017-05-24T15:34:12.771Z,5.85
2017-05-24T15:36:40.987Z,4.97
2017-05-24T15:39:09.209Z,4.30
2017-05-24T15:41:37.465Z,3.95
2017-05-24T15:44:05.755Z,4.72
2017-05-24T15:46:33.979Z,4.73
2017-05-24T15:49:02.219Z,3.50
2017-05-24T15:51:30.920Z,4.85
2017-05-24T15:53:59.195Z,4.57
2017-05-24T15:56:27.438Z,4.08
2017-05-24T15:58:55.672Z,6.32
2017-05-24T16:01:23.891Z,6.54
2017-05-24T16:03:52.167Z,4.50
2017-05-24T16:06:20.438Z,5.15
2017-05-24T16:08:48.727Z,3.13
2017-05-24T16:11:16.926Z,3.72
2017-05-24T16:13:45.171Z,4.90
2017-05-24T16:16:13.450Z,3.64
2017-05-24T16:18:41.656Z,4.60
2017-05-24T16:21:09.898Z,5.23
2017-05-24T16:23:38.203Z,3.58
2017-05-24T16:26:06.404Z,4.86
2017-05-24T16:28:34.622Z,4.57
2017-05-24T16:31:02.883Z,6.28
2017-05-24T16:33:31.108Z,4.52
2017-05-24T16:35:59.425Z,4.97
2017-05-24T16:38:27.630Z,3.78
2017-05-24T16:40:55.860Z,4.10
2017-05-24T16:43:24.135Z,5.28
2017-05-24T16:45:52.358Z,7.38
2017-05-24T16:48:20.615Z,3.92
2017-05-24T16:50:48.834Z,5.27
2017-05-24T16:53:17.078Z,10.00
2017-05-24T16:55:45.347Z,5.13
2017-05-24T16:58:12.883Z,7.07
2017-05-24T17:00:41.108Z,6.25
2017-05-24T17:03:09.327Z,3.64
2017-05-24T17:05:37.553Z,8.45
2017-05-24T17:08:05.746Z,6.95
2017-05-24T17:10:33.954Z,5.85
2017-05-24T17:13:02.342Z,5.97
2017-05-24T17:15:30.619Z,6.97
2017-05-24T17:17:59.000Z,4.85
2017-05-24T17:20:27.380Z,5.53
2017-05-24T17:22:55.594Z,8.22
2017-05-24T17:25:23.931Z,6.50
2017-05-24T17:27:52.160Z,6.03
2017-05-24T17:30:20.368Z,7.00
2017-05-24T17:32:48.570Z,4.45
2017-05-24T17:35:16.780Z,7.07
2017-05-24T17:37:45.099Z,4.22
2017-05-24T17:40:13.334Z,6.42
2017-05-24T17:42:41.543Z,6.15
2017-05-24T17:45:09.849Z,7.22
2017-05-24T17:47:38.144Z,6.37
2017-05-24T17:50:06.353Z,7.36
2017-05-24T17:52:34.566Z,5.15
2017-05-24T17:55:02.795Z,5.02
2017-05-24T17:57:31.000Z,4.20
2017-05-24T17:59:59.283Z,5.38
2017-05-24T18:02:27.497Z,7.30
2017-05-24T18:04:55.747Z,7.75
2017-05-24T18:07:24.111Z,6.22
2017-05-24T18:09:52.367Z,4.53
2017-05-24T18:12:20.575Z,6.67
2017-05-24T18:14:48.839Z,5.70
2017-05-24T18:17:17.043Z,5.85
2017-05-24T18:19:45.263Z,6.23
2017-05-24T18:22:13.472Z,4.97
2017-05-24T18:24:41.792Z,5.82
2017-05-24T18:27:10.006Z,7.63
2017-05-24T18:29:38.364Z,5.45
2017-05-24T18:32:06.579Z,6.30
2017-05-24T18:34:34.789Z,6.03
2017-05-24T18:37:03.060Z,7.10
2017-05-24T18:39:31.253Z,8.12
2017-05-24T18:41:59.499Z,5.23
2017-05-24T18:44:27.746Z,6.28
2017-05-24T18:46:55.974Z,7.43
2017-05-24T18:49:24.183Z,8.30
2017-05-24T18:51:52.452Z,5.80
2017-05-24T18:54:20.675Z,8.54
2017-05-24T18:56:48.904Z,8.47
2017-05-24T18:59:17.159Z,9.16
2017-05-24T19:01:45.400Z,8.53
2017-05-24T19:04:13.724Z,9.02
2017-05-24T19:06:42.039Z,7.47
2017-05-24T19:09:10.363Z,10.95
2017-05-24T19:11:38.642Z,11.38
2017-05-24T19:14:06.888Z,10.65
2017-05-24T19:16:35.319Z,11.24
2017-05-24T19:19:03.546Z,8.37
2017-05-24T19:21:31.807Z,12.38
2017-05-24T19:24:00.004Z,10.72
2017-05-24T19:26:28.305Z,10.72
2017-05-24T19:28:56.519Z,11.53
2017-05-24T19:31:24.817Z,12.00
2017-05-24T19:33:53.096Z,9.85
2017-05-24T19:36:21.417Z,10.10
2017-05-24T19:38:49.649Z,9.36
2017-05-24T19:41:18.319Z,9.88
2017-05-24T19:43:46.556Z,10.18
2017-05-24T19:46:14.770Z,9.32
2017-05-24T19:48:43.144Z,10.32
2017-05-24T19:51:11.336Z,8.50
2017-05-24T19:53:39.551Z,13.45
2017-05-24T19:56:08.187Z,12.62
2017-05-24T19:58:36.490Z,10.92
2017-05-24T20:01:04.728Z,9.53
2017-05-24T20:03:32.976Z,11.42
2017-05-24T20:06:01.199Z,9.23
2017-05-24T20:08:28.695Z,12.40
2017-05-24T20:10:56.930Z,10.12
2017-05-24T20:13:25.139Z,14.95
2017-05-24T20:15:53.371Z,12.65
2017-05-24T20:18:21.652Z,13.68
2017-05-24T20:20:49.952Z,13.37
2017-05-24T20:23:18.159Z,10.58
2017-05-24T20:25:46.411Z,11.77
2017-05-24T20:28:14.632Z,9.76
2017-05-24T20:30:42.976Z,12.17
2017-05-24T20:33:11.245Z,16.53
2017-05-24T20:35:38.714Z,16.82
2017-05-24T20:38:06.926Z,12.62
2017-05-24T20:40:35.135Z,12.50
2017-05-24T20:43:03.416Z,13.90
2017-05-24T20:45:31.646Z,11.47
2017-05-24T20:47:59.875Z,12.72
2017-05-24T20:50:28.088Z,10.45
2017-05-24T20:52:56.414Z,12.87
2017-05-24T20:55:24.690Z,15.35
2017-05-24T20:57:52.948Z,12.82
2017-05-24T21:00:21.261Z,16.48
2017-05-24T21:02:49.491Z,13.18
2017-05-24T21:05:17.861Z,12.97
2017-05-24T21:07:46.179Z,13.10
2017-05-24T21:10:14.386Z,11.80
2017-05-24T21:12:42.631Z,15.37
2017-05-24T21:15:10.850Z,13.13
2017-05-24T21:17:39.259Z,13.58
2017-05-24T21:20:07.564Z,15.52
2017-05-24T21:22:35.817Z,14.17
2017-05-24T21:25:04.095Z,13.12
2017-05-24T21:27:32.383Z,15.90
2017-05-24T21:30:00.645Z,13.13
2017-05-24T21:32:28.928Z,15.18
2017-05-24T21:34:57.408Z,14.32
2017-05-24T21:37:25.798Z,15.65
2017-05-24T21:39:54.052Z,14.57
2017-05-24T21:42:22.400Z,14.25
2017-05-24T21:44:50.599Z,14.38
2017-05-24T21:47:18.808Z,14.62
2017-05-24T21:49:47.121Z,15.23
2017-05-24T21:52:15.397Z,14.42
2017-05-24T21:54:43.784Z,18.23
2017-05-24T21:57:11.998Z,16.37
2017-05-24T21:59:40.238Z,14.90
2017-05-24T22:02:08.471Z,18.22
2017-05-24T22:04:36.770Z,15.17
2017-05-24T22:07:05.080Z,15.68
2017-05-24T22:09:33.366Z,15.50
2017-05-24T22:12:01.639Z,18.07
2017-05-24T22:14:29.898Z,21.37
2017-05-24T22:16:58.107Z,17.75
2017-05-24T22:19:26.349Z,18.07
2017-05-24T22:21:54.636Z,20.65
2017-05-24T22:24:22.907Z,21.62
2017-05-24T22:26:51.158Z,21.57
2017-05-24T22:29:19.367Z,22.22
2017-05-24T22:31:47.588Z,23.93
2017-05-24T22:34:15.950Z,25.10
2017-05-24T22:36:44.238Z,26.57
2017-05-24T22:39:12.523Z,25.83
2017-05-24T22:41:40.767Z,22.57
2017-05-24T22:44:09.134Z,27.32
2017-05-24T22:46:37.345Z,25.42
2017-05-24T22:49:05.569Z,22.67
2017-05-24T22:51:33.843Z,23.62
2017-05-24T22:54:02.235Z,27.23
2017-05-24T22:56:30.466Z,25.33
2017-05-24T22:58:58.750Z,23.40
2017-05-24T23:01:26.976Z,24.22
2017-05-24T23:03:55.231Z,27.57
2017-05-24T23:06:23.442Z,24.38
2017-05-24T23:08:51.671Z,27.72
2017-05-24T23:11:19.891Z,24.85
2017-05-24T23:13:48.206Z,27.98
2017-05-24T23:16:16.476Z,32.33
2017-05-24T23:18:44.756Z,29.20
2017-05-24T23:21:12.979Z,29.92
2017-05-24T23:23:41.198Z,32.48
2017-05-24T23:26:09.406Z,29.93
2017-05-24T23:28:37.639Z,27.18
2017-05-24T23:31:05.926Z,28.30
2017-05-24T23:33:34.156Z,29.23
2017-05-24T23:36:02.390Z,28.48
2017-05-24T23:38:30.623Z,31.03
2017-05-24T23:40:58.838Z,32.00
2017-05-24T23:43:27.062Z,29.43
2017-05-24T23:45:55.276Z,33.70
2017-05-24T23:48:23.550Z,36.67
2017-05-24T23:50:51.792Z,35.27
2017-05-24T23:53:20.210Z,32.47
2017-05-24T23:55:48.425Z,32.53
2017-05-24T23:58:16.659Z,33.32
